sensor_id;sensor_type;location;lat;lon;timestamp;pressure;altitude;pressure_sealevel;temperature;humidity
76352;BME280;65179;47.786;19.138;2023-09-18T00:00:48;100583.56;;;20.95;70.85
76352;BME280;65179;47.786;19.138;2023-09-18T00:03:18;100583.53;;;21.05;70.51
76352;BME280;65179;47.786;19.138;2023-09-18T00:05:45;100588.25;;;20.95;70.69
76352;BME280;65179;47.786;19.138;2023-09-18T00:08:11;100591.00;;;21.05;70.40
76352;BME280;65179;47.786;19.138;2023-09-18T00:10:37;100587.94;;;21.01;70.63
76352;BME280;65179;47.786;19.138;2023-09-18T00:13:02;100584.62;;;20.99;70.63
76352;BME280;65179;47.786;19.138;2023-09-18T00:15:28;100590.13;;;21.09;70.69
76352;BME280;65179;47.786;19.138;2023-09-18T00:17:53;100583.56;;;20.95;70.81
76352;BME280;65179;47.786;19.138;2023-09-18T00:20:19;100579.66;;;20.96;71.13
76352;BME280;65179;47.786;19.138;2023-09-18T00:22:44;100569.75;;;21.00;70.62
76352;BME280;65179;47.786;19.138;2023-09-18T00:25:10;100568.06;;;20.99;70.93
76352;BME280;65179;47.786;19.138;2023-09-18T00:27:35;100564.78;;;20.97;70.59
76352;BME280;65179;47.786;19.138;2023-09-18T00:30:04;100571.44;;;20.91;71.03
76352;BME280;65179;47.786;19.138;2023-09-18T00:32:30;100575.28;;;20.90;71.01
76352;BME280;65179;47.786;19.138;2023-09-18T00:34:55;100571.47;;;20.81;71.29
76352;BME280;65179;47.786;19.138;2023-09-18T00:37:21;100574.22;;;20.81;71.62
76352;BME280;65179;47.786;19.138;2023-09-18T00:39:46;100563.19;;;20.81;71.27
76352;BME280;65179;47.786;19.138;2023-09-18T00:42:12;100576.19;;;20.81;71.41
76352;BME280;65179;47.786;19.138;2023-09-18T00:44:43;100569.00;;;20.80;71.40
76352;BME280;65179;47.786;19.138;2023-09-18T00:47:08;100575.63;;;20.79;71.47
76352;BME280;65179;47.786;19.138;2023-09-18T00:49:35;100578.97;;;20.71;72.28
76352;BME280;65179;47.786;19.138;2023-09-18T00:52:03;100569.88;;;20.70;71.84
76352;BME280;65179;47.786;19.138;2023-09-18T00:54:29;100571.75;;;20.75;71.85
76352;BME280;65179;47.786;19.138;2023-09-18T00:56:55;100563.53;;;20.65;71.75
76352;BME280;65179;47.786;19.138;2023-09-18T00:59:21;100559.13;;;20.64;71.96
76352;BME280;65179;47.786;19.138;2023-09-18T01:01:48;100563.28;;;20.61;nan
76352;BME280;65179;47.786;19.138;2023-09-18T01:04:16;100561.38;;;20.62;72.05
76352;BME280;65179;47.786;19.138;2023-09-18T01:06:41;100567.97;;;20.61;72.14
76352;BME280;65179;47.786;19.138;2023-09-18T01:09:07;100568.81;;;20.56;72.49
76352;BME280;65179;47.786;19.138;2023-09-18T01:17:09;100576.59;;;20.44;72.92
76352;BME280;65179;47.786;19.138;2023-09-18T01:19:43;100576.00;;;20.47;72.87
76352;BME280;65179;47.786;19.138;2023-09-18T01:22:11;100579.59;;;20.42;72.74
76352;BME280;65179;47.786;19.138;2023-09-18T01:24:38;100570.56;;;20.27;73.36
76352;BME280;65179;47.786;19.138;2023-09-18T01:27:08;100573.88;;;20.29;73.23
76352;BME280;65179;47.786;19.138;2023-09-18T01:29:33;100574.69;;;20.29;73.44
76352;BME280;65179;47.786;19.138;2023-09-18T01:31:59;100566.16;;;20.31;73.65
76352;BME280;65179;47.786;19.138;2023-09-18T01:34:48;100560.91;;;20.24;73.41
76352;BME280;65179;47.786;19.138;2023-09-18T01:37:16;100564.22;;;20.26;73.85
76352;BME280;65179;47.786;19.138;2023-09-18T01:39:44;100568.91;;;20.21;73.91
76352;BME280;65179;47.786;19.138;2023-09-18T01:42:11;100563.94;;;20.13;73.98
76352;BME280;65179;47.786;19.138;2023-09-18T01:44:37;100561.19;;;20.18;74.02
76352;BME280;65179;47.786;19.138;2023-09-18T01:47:04;100569.44;;;20.18;73.67
76352;BME280;65179;47.786;19.138;2023-09-18T01:49:39;100567.81;;;20.22;74.01
76352;BME280;65179;47.786;19.138;2023-09-18T01:52:06;100564.47;;;20.25;73.85
76352;BME280;65179;47.786;19.138;2023-09-18T01:54:33;100566.44;;;20.24;73.49
76352;BME280;65179;47.786;19.138;2023-09-18T01:56:58;100573.31;;;20.22;73.51
76352;BME280;65179;47.786;19.138;2023-09-18T01:59:24;100573.59;;;20.15;74.19
76352;BME280;65179;47.786;19.138;2023-09-18T02:01:50;100572.22;;;20.18;73.86
76352;BME280;65179;47.786;19.138;2023-09-18T02:04:17;100567.25;;;20.20;73.79
76352;BME280;65179;47.786;19.138;2023-09-18T02:06:43;100575.50;;;20.30;73.45
76352;BME280;65179;47.786;19.138;2023-09-18T02:09:09;100563.94;;;20.23;73.46
76352;BME280;65179;47.786;19.138;2023-09-18T02:11:42;100571.12;;;20.29;73.50
76352;BME280;65179;47.786;19.138;2023-09-18T02:14:08;100563.94;;;20.23;73.76
76352;BME280;65179;47.786;19.138;2023-09-18T02:16:36;100563.66;;;20.19;73.82
76352;BME280;65179;47.786;19.138;2023-09-18T02:19:04;100561.47;;;20.11;74.15
76352;BME280;65179;47.786;19.138;2023-09-18T02:21:30;100558.44;;;19.93;75.08
76352;BME280;65179;47.786;19.138;2023-09-18T02:23:56;100555.13;;;19.91;74.88
76352;BME280;65179;47.786;19.138;2023-09-18T02:26:23;100552.66;;;19.89;74.78
76352;BME280;65179;47.786;19.138;2023-09-18T02:28:49;100559.00;;;19.80;75.26
76352;BME280;65179;47.786;19.138;2023-09-18T02:31:14;100564.25;;;19.76;75.46
76352;BME280;65179;47.786;19.138;2023-09-18T02:33:41;100566.75;;;19.73;75.72
76352;BME280;65179;47.786;19.138;2023-09-18T02:36:07;100562.03;;;19.73;76.10
76352;BME280;65179;47.786;19.138;2023-09-18T02:38:35;100572.25;;;19.67;76.10
76352;BME280;65179;47.786;19.138;2023-09-18T02:41:01;100568.09;;;19.65;75.97
76352;BME280;65179;47.786;19.138;2023-09-18T02:43:26;100573.88;;;19.74;75.72
76352;BME280;65179;47.786;19.138;2023-09-18T02:45:52;100569.47;;;19.78;75.18
76352;BME280;65179;47.786;19.138;2023-09-18T02:48:18;100579.41;;;19.79;75.28
76352;BME280;65179;47.786;19.138;2023-09-18T02:50:44;100567.56;;;19.78;75.12
76352;BME280;65179;47.786;19.138;2023-09-18T02:53:28;100575.28;;;19.66;75.63
76352;BME280;65179;47.786;19.138;2023-09-18T02:55:55;100583.56;;;19.66;76.00
76352;BME280;65179;47.786;19.138;2023-09-18T02:58:22;100581.59;;;19.66;75.73
76352;BME280;65179;47.786;19.138;2023-09-18T03:00:50;100584.62;;;19.55;76.75
76352;BME280;65179;47.786;19.138;2023-09-18T03:03:16;100579.97;;;19.55;76.76
76352;BME280;65179;47.786;19.138;2023-09-18T03:05:43;100577.75;;;19.57;76.59
76352;BME280;65179;47.786;19.138;2023-09-18T03:08:10;100577.19;;;19.60;76.74
76352;BME280;65179;47.786;19.138;2023-09-18T03:10:40;100581.03;;;19.49;77.19
76352;BME280;65179;47.786;19.138;2023-09-18T03:13:06;100572.78;;;19.44;77.75
76352;BME280;65179;47.786;19.138;2023-09-18T03:15:33;100578.84;;;19.51;77.44
76352;BME280;65179;47.786;19.138;2023-09-18T03:17:59;100575.53;;;19.54;77.27
76352;BME280;65179;47.786;19.138;2023-09-18T03:20:26;100569.47;;;19.42;77.93
76352;BME280;65179;47.786;19.138;2023-09-18T03:22:54;100577.09;;;19.15;79.79
76352;BME280;65179;47.786;19.138;2023-09-18T03:25:20;100579.59;;;19.22;78.75
76352;BME280;65179;47.786;19.138;2023-09-18T03:27:47;100573.81;;;19.28;78.38
76352;BME280;65179;47.786;19.138;2023-09-18T03:30:12;100577.69;;;19.27;78.38
76352;BME280;65179;47.786;19.138;2023-09-18T03:32:41;100577.66;;;19.17;78.56
76352;BME280;65179;47.786;19.138;2023-09-18T03:35:07;100577.66;;;19.22;78.51
76352;BME280;65179;47.786;19.138;2023-09-18T03:37:34;100578.50;;;19.23;78.33
76352;BME280;65179;47.786;19.138;2023-09-18T03:39:59;100579.87;;;19.20;78.41
76352;BME280;65179;47.786;19.138;2023-09-18T03:42:25;100571.31;;;19.17;78.46
76352;BME280;65179;47.786;19.138;2023-09-18T03:44:51;100578.22;;;19.24;78.42
76352;BME280;65179;47.786;19.138;2023-09-18T03:47:16;100565.56;;;19.18;78.39
76352;BME280;65179;47.786;19.138;2023-09-18T03:49:42;100574.91;;;19.22;78.31
76352;BME280;65179;47.786;19.138;2023-09-18T03:52:07;100572.16;;;19.17;78.40
76352;BME280;65179;47.786;19.138;2023-09-18T03:54:32;100569.41;;;19.12;78.37
76352;BME280;65179;47.786;19.138;2023-09-18T03:56:58;100573.81;;;19.23;78.23
76352;BME280;65179;47.786;19.138;2023-09-18T03:59:23;100583.44;;;19.26;77.91
76352;BME280;65179;47.786;19.138;2023-09-18T04:01:49;100569.94;;;19.09;78.64
76352;BME280;65179;47.786;19.138;2023-09-18T04:04:15;100573.22;;;19.06;78.65
76352;BME280;65179;47.786;19.138;2023-09-18T04:06:41;100566.06;;;19.10;78.29
76352;BME280;65179;47.786;19.138;2023-09-18T04:09:07;100563.31;;;19.05;78.57
76352;BME280;65179;47.786;19.138;2023-09-18T04:11:33;100567.19;;;19.09;78.47
76352;BME280;65179;47.786;19.138;2023-09-18T04:13:59;100551.50;;;19.10;78.29
76352;BME280;65179;47.786;19.138;2023-09-18T04:16:25;100552.81;;;18.92;79.25
76352;BME280;65179;47.786;19.138;2023-09-18T04:18:53;100549.53;;;19.00;78.84
76352;BME280;65179;47.786;19.138;2023-09-18T04:21:18;100560.00;;;19.03;78.76
76352;BME280;65179;47.786;19.138;2023-09-18T04:23:44;100550.66;;;19.09;78.47
76352;BME280;65179;47.786;19.138;2023-09-18T04:26:09;100557.25;;;19.03;78.84
76352;BME280;65179;47.786;19.138;2023-09-18T04:28:35;100559.94;;;18.83;80.01
76352;BME280;65179;47.786;19.138;2023-09-18T04:31:01;100564.66;;;18.92;79.24
76352;BME280;65179;47.786;19.138;2023-09-18T04:33:26;100556.66;;;18.91;79.04
76352;BME280;65179;47.786;19.138;2023-09-18T04:35:54;100558.87;;;18.94;78.84
76352;BME280;65179;47.786;19.138;2023-09-18T04:38:19;100555.87;;;19.01;78.71
76352;BME280;65179;47.786;19.138;2023-09-18T04:40:44;100553.41;;;18.99;78.58
76352;BME280;65179;47.786;19.138;2023-09-18T04:43:11;100556.13;;;18.94;78.70
76352;BME280;65179;47.786;19.138;2023-09-18T04:45:39;100559.19;;;19.03;78.43
76352;BME280;65179;47.786;19.138;2023-09-18T04:48:04;100563.81;;;18.92;78.95
76352;BME280;65179;47.786;19.138;2023-09-18T04:50:31;100569.34;;;18.92;78.84
76352;BME280;65179;47.786;19.138;2023-09-18T04:52:59;100570.69;;;18.89;78.86
76352;BME280;65179;47.786;19.138;2023-09-18T04:55:24;100568.72;;;18.75;79.56
76352;BME280;65179;47.786;19.138;2023-09-18T04:57:49;100573.38;;;18.64;79.90
76352;BME280;65179;47.786;19.138;2023-09-18T05:00:15;100565.34;;;18.63;80.09
76352;BME280;65179;47.786;19.138;2023-09-18T05:02:41;100562.63;;;18.68;79.76
76352;BME280;65179;47.786;19.138;2023-09-18T05:05:08;100558.75;;;18.59;80.47
76352;BME280;65179;47.786;19.138;2023-09-18T05:07:36;100556.03;;;18.64;80.80
76352;BME280;65179;47.786;19.138;2023-09-18T05:10:02;100554.91;;;18.60;80.42
76352;BME280;65179;47.786;19.138;2023-09-18T05:12:30;100551.00;;;18.51;80.91
76352;BME280;65179;47.786;19.138;2023-09-18T05:14:55;100558.72;;;18.54;81.21
76352;BME280;65179;47.786;19.138;2023-09-18T05:17:39;100556.22;;;18.52;81.74
76352;BME280;65179;47.786;19.138;2023-09-18T05:20:06;100557.91;;;18.58;81.21
76352;BME280;65179;47.786;19.138;2023-09-18T05:22:32;100562.03;;;18.61;81.30
76352;BME280;65179;47.786;19.138;2023-09-18T05:24:58;100560.44;;;18.70;80.70
76352;BME280;65179;47.786;19.138;2023-09-18T05:27:24;100560.47;;;18.75;80.44
76352;BME280;65179;47.786;19.138;2023-09-18T05:29:50;100557.16;;;18.78;80.33
76352;BME280;65179;47.786;19.138;2023-09-18T05:32:15;100558.53;;;18.75;80.61
76352;BME280;65179;47.786;19.138;2023-09-18T05:34:41;100550.00;;;18.82;80.69
76352;BME280;65179;47.786;19.138;2023-09-18T05:37:07;100552.50;;;18.88;80.04
76352;BME280;65179;47.786;19.138;2023-09-18T05:39:32;100560.25;;;18.97;79.62
76352;BME280;65179;47.786;19.138;2023-09-18T05:41:57;100553.94;;;19.06;79.52
76352;BME280;65179;47.786;19.138;2023-09-18T05:44:23;100552.31;;;19.05;79.36
76352;BME280;65179;47.786;19.138;2023-09-18T05:46:48;100556.72;;;19.21;78.75
76352;BME280;65179;47.786;19.138;2023-09-18T05:49:14;100553.97;;;19.16;79.13
76352;BME280;65179;47.786;19.138;2023-09-18T05:51:39;100552.91;;;19.27;78.63
76352;BME280;65179;47.786;19.138;2023-09-18T05:54:05;100555.34;;;19.14;78.98
76352;BME280;65179;47.786;19.138;2023-09-18T05:56:30;100554.25;;;19.20;78.65
76352;BME280;65179;47.786;19.138;2023-09-18T05:58:56;100541.03;;;19.22;78.71
76352;BME280;65179;47.786;19.138;2023-09-18T06:01:21;100536.38;;;19.22;78.76
76352;BME280;65179;47.786;19.138;2023-09-18T06:03:47;100550.75;;;19.39;78.20
76352;BME280;65179;47.786;19.138;2023-09-18T06:06:12;100552.63;;;19.19;78.62
76352;BME280;65179;47.786;19.138;2023-09-18T06:08:38;100546.59;;;19.37;78.47
76352;BME280;65179;47.786;19.138;2023-09-18T06:11:03;100548.81;;;19.40;78.17
76352;BME280;65179;47.786;19.138;2023-09-18T06:13:29;100554.59;;;19.43;78.11
76352;BME280;65179;47.786;19.138;2023-09-18T06:15:55;100547.16;;;19.44;77.98
76352;BME280;65179;47.786;19.138;2023-09-18T06:18:22;100541.38;;;19.60;77.41
76352;BME280;65179;47.786;19.138;2023-09-18T06:20:48;100549.06;;;19.68;77.09
76352;BME280;65179;47.786;19.138;2023-09-18T06:23:14;100543.56;;;19.74;76.82
76352;BME280;65179;47.786;19.138;2023-09-18T06:25:40;100545.50;;;19.73;76.77
76352;BME280;65179;47.786;19.138;2023-09-18T06:28:06;100533.94;;;19.71;76.39
76352;BME280;65179;47.786;19.138;2023-09-18T06:30:32;100533.38;;;19.84;75.95
76352;BME280;65179;47.786;19.138;2023-09-18T06:33:01;100534.19;;;19.85;76.24
76352;BME280;65179;47.786;19.138;2023-09-18T06:35:27;100538.87;;;19.94;75.59
76352;BME280;65179;47.786;19.138;2023-09-18T06:37:53;100531.69;;;20.03;75.05
76352;BME280;65179;47.786;19.138;2023-09-18T06:40:23;100536.66;;;20.06;74.94
76352;BME280;65179;47.786;19.138;2023-09-18T06:42:49;100540.50;;;20.15;74.60
76352;BME280;65179;47.786;19.138;2023-09-18T06:45:14;100538.56;;;20.16;74.30
76352;BME280;65179;47.786;19.138;2023-09-18T06:47:40;100534.69;;;20.17;73.35
76352;BME280;65179;47.786;19.138;2023-09-18T06:50:06;100536.63;;;20.26;73.48
76352;BME280;65179;47.786;19.138;2023-09-18T06:52:31;100536.06;;;20.19;73.61
76352;BME280;65179;47.786;19.138;2023-09-18T06:54:57;100524.50;;;20.27;72.79
76352;BME280;65179;47.786;19.138;2023-09-18T06:57:25;100530.00;;;20.37;72.63
76352;BME280;65179;47.786;19.138;2023-09-18T06:59:51;100531.91;;;20.42;72.56
76352;BME280;65179;47.786;19.138;2023-09-18T07:02:16;100521.97;;;20.41;72.35
76352;BME280;65179;47.786;19.138;2023-09-18T07:04:42;100523.59;;;20.52;72.00
76352;BME280;65179;47.786;19.138;2023-09-18T07:07:14;100519.69;;;20.53;71.61
76352;BME280;65179;47.786;19.138;2023-09-18T07:09:40;100533.47;;;20.63;71.41
76352;BME280;65179;47.786;19.138;2023-09-18T07:12:09;100526.28;;;20.67;71.13
76352;BME280;65179;47.786;19.138;2023-09-18T07:14:36;100519.66;;;20.63;71.24
76352;BME280;65179;47.786;19.138;2023-09-18T07:17:03;100510.03;;;20.56;71.38
76352;BME280;65179;47.786;19.138;2023-09-18T07:19:29;100517.41;;;20.75;70.89
76352;BME280;65179;47.786;19.138;2023-09-18T07:21:54;100517.38;;;20.80;70.71
76352;BME280;65179;47.786;19.138;2023-09-18T07:24:19;100522.88;;;20.85;70.48
76352;BME280;65179;47.786;19.138;2023-09-18T07:26:46;100521.78;;;20.81;69.99
76352;BME280;65179;47.786;19.138;2023-09-18T07:29:15;100519.75;;;20.97;70.10
76352;BME280;65179;47.786;19.138;2023-09-18T07:31:42;100526.94;;;21.03;69.36
76352;BME280;65179;47.786;19.138;2023-09-18T07:34:08;100520.03;;;21.00;69.58
76352;BME280;65179;47.786;19.138;2023-09-18T07:36:34;100527.22;;;20.96;70.06
76352;BME280;65179;47.786;19.138;2023-09-18T07:39:00;100528.78;;;21.18;69.35
76352;BME280;65179;47.786;19.138;2023-09-18T07:41:25;100527.53;;;21.39;69.07
76352;BME280;65179;47.786;19.138;2023-09-18T07:43:51;100530.72;;;21.51;68.75
76352;BME280;65179;47.786;19.138;2023-09-18T07:46:17;100542.53;;;21.61;68.37
76352;BME280;65179;47.786;19.138;2023-09-18T07:48:42;100531.72;;;21.65;67.35
76352;BME280;65179;47.786;19.138;2023-09-18T07:51:11;100521.25;;;21.62;67.90
76352;BME280;65179;47.786;19.138;2023-09-18T07:53:37;100524.87;;;21.57;68.13
76352;BME280;65179;47.786;19.138;2023-09-18T07:56:03;100516.34;;;21.87;67.25
76352;BME280;65179;47.786;19.138;2023-09-18T07:58:30;100512.16;;;21.90;66.51
76352;BME280;65179;47.786;19.138;2023-09-18T08:00:56;100517.38;;;22.20;66.13
76352;BME280;65179;47.786;19.138;2023-09-18T08:03:25;100520.94;;;22.26;66.11
76352;BME280;65179;47.786;19.138;2023-09-18T08:05:52;100513.81;;;22.43;66.03
76352;BME280;65179;47.786;19.138;2023-09-18T08:08:19;100508.66;;;22.55;65.23
76352;BME280;65179;47.786;19.138;2023-09-18T08:10:46;100513.34;;;22.60;65.02
76352;BME280;65179;47.786;19.138;2023-09-18T08:13:12;100512.94;;;22.72;64.30
76352;BME280;65179;47.786;19.138;2023-09-18T08:15:38;100506.41;;;22.81;64.02
76352;BME280;65179;47.786;19.138;2023-09-18T08:18:03;100512.72;;;23.05;63.64
76352;BME280;65179;47.786;19.138;2023-09-18T08:20:29;100510.06;;;23.32;62.73
76352;BME280;65179;47.786;19.138;2023-09-18T08:22:54;100500.28;;;23.21;62.73
76352;BME280;65179;47.786;19.138;2023-09-18T08:25:19;100500.97;;;23.32;62.11
76352;BME280;65179;47.786;19.138;2023-09-18T08:27:45;100490.75;;;23.65;61.96
76352;BME280;65179;47.786;19.138;2023-09-18T08:30:13;100479.50;;;23.88;60.96
76352;BME280;65179;47.786;19.138;2023-09-18T08:32:39;100491.97;;;24.04;60.47
76352;BME280;65179;47.786;19.138;2023-09-18T08:35:06;100474.25;;;24.00;60.48
76352;BME280;65179;47.786;19.138;2023-09-18T08:37:31;100482.75;;;24.23;59.89
76352;BME280;65179;47.786;19.138;2023-09-18T08:39:57;100469.78;;;24.32;59.14
76352;BME280;65179;47.786;19.138;2023-09-18T08:42:23;100465.03;;;24.32;59.28
76352;BME280;65179;47.786;19.138;2023-09-18T08:44:51;100470.41;;;24.42;58.65
76352;BME280;65179;47.786;19.138;2023-09-18T08:47:19;100467.53;;;24.34;58.09
76352;BME280;65179;47.786;19.138;2023-09-18T08:49:49;100459.69;;;24.49;58.36
76352;BME280;65179;47.786;19.138;2023-09-18T08:52:16;100467.59;;;24.83;57.13
76352;BME280;65179;47.786;19.138;2023-09-18T08:54:42;100473.69;;;24.58;57.85
76352;BME280;65179;47.786;19.138;2023-09-18T08:57:08;100473.97;;;24.83;57.40
76352;BME280;65179;47.786;19.138;2023-09-18T08:59:35;100465.22;;;25.12;56.49
76352;BME280;65179;47.786;19.138;2023-09-18T09:02:03;100477.78;;;25.45;55.98
76352;BME280;65179;47.786;19.138;2023-09-18T09:04:29;100474.78;;;25.20;56.08
76352;BME280;65179;47.786;19.138;2023-09-18T09:06:54;100475.75;;;25.60;55.00
76352;BME280;65179;47.786;19.138;2023-09-18T09:09:23;100462.06;;;25.72;54.08
76352;BME280;65179;47.786;19.138;2023-09-18T09:11:51;100474.53;;;26.05;53.97
76352;BME280;65179;47.786;19.138;2023-09-18T09:14:17;100468.59;;;25.98;53.29
76352;BME280;65179;47.786;19.138;2023-09-18T09:16:47;100460.19;;;25.58;54.64
76352;BME280;65179;47.786;19.138;2023-09-18T09:19:15;100455.13;;;25.38;54.92
76352;BME280;65179;47.786;19.138;2023-09-18T09:21:43;100466.91;;;25.58;54.41
76352;BME280;65179;47.786;19.138;2023-09-18T09:24:09;100464.03;;;26.02;53.25
76352;BME280;65179;47.786;19.138;2023-09-18T09:26:40;100467.16;;;26.31;52.64
76352;BME280;65179;47.786;19.138;2023-09-18T09:29:19;100463.06;;;26.37;52.33
76352;BME280;65179;47.786;19.138;2023-09-18T09:31:45;100469.28;;;26.43;52.03
76352;BME280;65179;47.786;19.138;2023-09-18T09:34:11;100466.47;;;26.90;50.81
76352;BME280;65179;47.786;19.138;2023-09-18T09:36:51;100462.97;;;26.59;51.61
76352;BME280;65179;47.786;19.138;2023-09-18T09:39:16;100460.75;;;26.95;50.91
76352;BME280;65179;47.786;19.138;2023-09-18T09:41:45;100453.84;;;27.01;50.13
76352;BME280;65179;47.786;19.138;2023-09-18T09:44:13;100460.59;;;27.09;50.15
76352;BME280;65179;47.786;19.138;2023-09-18T09:46:45;100454.97;;;26.75;51.24
76352;BME280;65179;47.786;19.138;2023-09-18T09:49:11;100459.56;;;26.79;50.76
76352;BME280;65179;47.786;19.138;2023-09-18T09:51:37;100457.47;;;27.11;49.26
76352;BME280;65179;47.786;19.138;2023-09-18T09:54:02;100464.66;;;26.94;50.30
76352;BME280;65179;47.786;19.138;2023-09-18T09:56:48;100463.38;;;27.18;49.96
76352;BME280;65179;47.786;19.138;2023-09-18T09:59:16;100450.72;;;27.54;49.42
76352;BME280;65179;47.786;19.138;2023-09-18T10:01:43;100454.31;;;27.72;48.48
76352;BME280;65179;47.786;19.138;2023-09-18T10:04:15;100438.69;;;27.71;48.22
76352;BME280;65179;47.786;19.138;2023-09-18T10:06:50;100427.78;;;28.04;47.55
76352;BME280;65179;47.786;19.138;2023-09-18T10:09:16;100415.34;;;28.30;47.32
76352;BME280;65179;47.786;19.138;2023-09-18T10:11:45;100421.25;;;28.29;46.79
76352;BME280;65179;47.786;19.138;2023-09-18T10:14:21;100407.63;;;28.27;46.95
76352;BME280;65179;47.786;19.138;2023-09-18T10:16:54;100401.38;;;28.51;46.19
76352;BME280;65179;47.786;19.138;2023-09-18T10:19:36;100393.09;;;28.63;46.29
76352;BME280;65179;47.786;19.138;2023-09-18T10:24:54;100388.06;;;28.57;46.03
76352;BME280;65179;47.786;19.138;2023-09-18T10:27:25;100386.59;;;28.80;45.73
76352;BME280;65179;47.786;19.138;2023-09-18T10:29:52;100385.19;;;29.27;44.81
76352;BME280;65179;47.786;19.138;2023-09-18T10:32:20;100375.00;;;29.55;44.14
76352;BME280;65179;47.786;19.138;2023-09-18T10:34:48;100387.53;;;29.37;42.95
76352;BME280;65179;47.786;19.138;2023-09-18T10:37:15;100389.16;;;28.64;45.62
76352;BME280;65179;47.786;19.138;2023-09-18T10:39:41;100376.50;;;28.08;46.19
76352;BME280;65179;47.786;19.138;2023-09-18T10:42:08;100372.94;;;28.58;45.69
76352;BME280;65179;47.786;19.138;2023-09-18T10:44:34;100375.87;;;28.52;45.38
76352;BME280;65179;47.786;19.138;2023-09-18T10:47:02;100369.81;;;28.01;46.62
76352;BME280;65179;47.786;19.138;2023-09-18T10:49:31;100362.94;;;28.27;46.06
76352;BME280;65179;47.786;19.138;2023-09-18T10:51:57;100356.69;;;28.30;46.14
76352;BME280;65179;47.786;19.138;2023-09-18T10:54:25;100356.81;;;28.54;45.54
76352;BME280;65179;47.786;19.138;2023-09-18T10:56:52;100352.06;;;29.17;44.68
76352;BME280;65179;47.786;19.138;2023-09-18T10:59:18;100343.28;;;29.63;43.54
76352;BME280;65179;47.786;19.138;2023-09-18T11:01:46;100341.94;;;29.93;42.96
76352;BME280;65179;47.786;19.138;2023-09-18T11:04:13;100335.87;;;30.04;42.62
76352;BME280;65179;47.786;19.138;2023-09-18T11:09:25;100337.31;;;29.08;43.98
76352;BME280;65179;47.786;19.138;2023-09-18T11:14:23;100316.41;;;28.73;44.89
76352;BME280;65179;47.786;19.138;2023-09-18T11:17:06;100315.78;;;28.88;44.42
76352;BME280;65179;47.786;19.138;2023-09-18T11:20:46;100319.59;;;28.42;45.53
76352;BME280;65179;47.786;19.138;2023-09-18T11:22:48;100317.53;;;28.60;45.39
76352;BME280;65179;47.786;19.138;2023-09-18T11:25:42;100320.62;;;27.79;46.69
76352;BME280;65179;47.786;19.138;2023-09-18T11:28:24;100320.00;;;28.52;45.52
76352;BME280;65179;47.786;19.138;2023-09-18T11:30:52;100308.59;;;29.32;43.80
76352;BME280;65179;47.786;19.138;2023-09-18T11:33:41;100298.50;;;29.63;43.22
76352;BME280;65179;47.786;19.138;2023-09-18T11:36:11;100303.97;;;29.60;42.50
76352;BME280;65179;47.786;19.138;2023-09-18T11:38:54;100291.00;;;30.40;40.91
76352;BME280;65179;47.786;19.138;2023-09-18T11:41:27;100286.56;;;30.39;40.82
76352;BME280;65179;47.786;19.138;2023-09-18T11:46:48;100296.16;;;30.38;40.57
76352;BME280;65179;47.786;19.138;2023-09-18T11:49:19;100293.12;;;30.70;39.79
76352;BME280;65179;47.786;19.138;2023-09-18T11:51:47;100280.69;;;31.11;39.29
76352;BME280;65179;47.786;19.138;2023-09-18T11:54:13;100284.34;;;30.32;40.87
76352;BME280;65179;47.786;19.138;2023-09-18T11:56:40;100283.38;;;30.52;40.13
76352;BME280;65179;47.786;19.138;2023-09-18T11:59:06;100272.06;;;30.49;39.78
76352;BME280;65179;47.786;19.138;2023-09-18T12:01:32;100277.63;;;29.37;41.71
76352;BME280;65179;47.786;19.138;2023-09-18T12:04:02;100274.97;;;29.76;41.32
76352;BME280;65179;47.786;19.138;2023-09-18T12:06:35;100270.22;;;30.41;40.49
76352;BME280;65179;47.786;19.138;2023-09-18T12:09:01;100262.62;;;30.29;40.71
76352;BME280;65179;47.786;19.138;2023-09-18T12:11:28;100245.44;;;29.55;41.66
76352;BME280;65179;47.786;19.138;2023-09-18T12:13:54;100239.47;;;29.44;42.29
76352;BME280;65179;47.786;19.138;2023-09-18T12:16:19;100254.16;;;29.41;42.10
76352;BME280;65179;47.786;19.138;2023-09-18T12:18:46;100245.25;;;29.15;42.69
76352;BME280;65179;47.786;19.138;2023-09-18T12:21:13;100242.22;;;29.08;42.77
76352;BME280;65179;47.786;19.138;2023-09-18T12:23:40;100246.25;;;29.55;41.63
76352;BME280;65179;47.786;19.138;2023-09-18T12:26:06;100242.88;;;29.62;41.73
76352;BME280;65179;47.786;19.138;2023-09-18T12:28:33;100236.69;;;29.80;41.43
76352;BME280;65179;47.786;19.138;2023-09-18T12:31:00;100245.16;;;30.20;40.58
76352;BME280;65179;47.786;19.138;2023-09-18T12:33:33;100246.44;;;30.11;40.94
76352;BME280;65179;47.786;19.138;2023-09-18T12:35:59;100245.75;;;29.41;42.02
76352;BME280;65179;47.786;19.138;2023-09-18T12:38:24;100244.97;;;29.89;41.13
76352;BME280;65179;47.786;19.138;2023-09-18T12:40:53;100236.09;;;29.87;41.13
76352;BME280;65179;47.786;19.138;2023-09-18T12:43:19;100239.75;;;29.75;40.65
76352;BME280;65179;47.786;19.138;2023-09-18T12:45:48;100234.94;;;29.28;40.89
76352;BME280;65179;47.786;19.138;2023-09-18T12:48:15;100233.09;;;29.56;41.09
76352;BME280;65179;47.786;19.138;2023-09-18T12:50:41;100225.00;;;29.18;41.73
76352;BME280;65179;47.786;19.138;2023-09-18T12:53:13;100220.84;;;29.36;41.40
76352;BME280;65179;47.786;19.138;2023-09-18T12:55:41;100216.84;;;29.37;40.99
76352;BME280;65179;47.786;19.138;2023-09-18T12:58:10;100214.06;;;29.49;40.47